sensor_id;sensor_type;location;lat;lon;timestamp;P1;durP1;ratioP1;P2;durP2;ratioP2
5795;SDS011;2924;51.458;7.046;2023-01-28T00:01:45;9.27;;;7.43;;
5795;SDS011;2924;51.458;7.046;2023-01-28T00:04:11;10.47;;;8.30;;
5795;SDS011;2924;51.458;7.046;2023-01-28T00:06:36;8.90;;;7.80;;
5795;SDS011;2924;51.458;7.046;2023-01-28T00:09:02;10.10;;;7.70;;
5795;SDS011;2924;51.458;7.046;2023-01-28T00:11:28;8.03;;;7.23;;
5795;SDS011;2924;51.458;7.046;2023-01-28T00:13:54;10.27;;;6.90;;
5795;SDS011;2924;51.458;7.046;2023-01-28T00:16:19;8.53;;;7.17;;
5795;SDS011;2924;51.458;7.046;2023-01-28T00:18:51;8.83;;;7.30;;
5795;SDS011;2924;51.458;7.046;2023-01-28T00:21:17;7.13;;;6.43;;
5795;SDS011;2924;51.458;7.046;2023-01-28T00:23:45;7.10;;;6.40;;
5795;SDS011;2924;51.458;7.046;2023-01-28T00:26:14;6.90;;;6.20;;
5795;SDS011;2924;51.458;7.046;2023-01-28T00:28:40;6.97;;;6.30;;
5795;SDS011;2924;51.458;7.046;2023-01-28T00:31:17;6.70;;;5.97;;
5795;SDS011;2924;51.458;7.046;2023-01-28T00:33:46;12.63;;;6.97;;
5795;SDS011;2924;51.458;7.046;2023-01-28T00:36:13;14.80;;;10.33;;
5795;SDS011;2924;51.458;7.046;2023-01-28T00:38:40;9.60;;;8.37;;
5795;SDS011;2924;51.458;7.046;2023-01-28T00:41:10;13.20;;;9.80;;
5795;SDS011;2924;51.458;7.046;2023-01-28T00:43:37;15.50;;;10.63;;
5795;SDS011;2924;51.458;7.046;2023-01-28T00:46:04;14.43;;;11.57;;
5795;SDS011;2924;51.458;7.046;2023-01-28T00:48:34;14.57;;;11.17;;
5795;SDS011;2924;51.458;7.046;2023-01-28T00:51:01;16.53;;;10.37;;
5795;SDS011;2924;51.458;7.046;2023-01-28T00:53:27;19.97;;;12.53;;
5795;SDS011;2924;51.458;7.046;2023-01-28T00:55:53;18.00;;;11.50;;
5795;SDS011;2924;51.458;7.046;2023-01-28T00:58:19;13.10;;;10.90;;
5795;SDS011;2924;51.458;7.046;2023-01-28T01:00:48;11.27;;;8.90;;
5795;SDS011;2924;51.458;7.046;2023-01-28T01:03:14;9.37;;;7.53;;
5795;SDS011;2924;51.458;7.046;2023-01-28T01:05:40;9.73;;;7.20;;
5795;SDS011;2924;51.458;7.046;2023-01-28T01:08:05;9.47;;;6.33;;
5795;SDS011;2924;51.458;7.046;2023-01-28T01:10:31;10.33;;;7.17;;
5795;SDS011;2924;51.458;7.046;2023-01-28T01:12:56;8.50;;;6.60;;
5795;SDS011;2924;51.458;7.046;2023-01-28T01:15:23;11.40;;;7.13;;
5795;SDS011;2924;51.458;7.046;2023-01-28T01:17:48;8.77;;;7.10;;
5795;SDS011;2924;51.458;7.046;2023-01-28T01:20:16;8.73;;;6.40;;
5795;SDS011;2924;51.458;7.046;2023-01-28T01:22:44;8.77;;;6.70;;
5795;SDS011;2924;51.458;7.046;2023-01-28T01:25:10;7.70;;;6.80;;
5795;SDS011;2924;51.458;7.046;2023-01-28T01:27:37;8.57;;;7.33;;
5795;SDS011;2924;51.458;7.046;2023-01-28T01:30:03;10.47;;;8.33;;
5795;SDS011;2924;51.458;7.046;2023-01-28T01:32:29;8.70;;;6.90;;
5795;SDS011;2924;51.458;7.046;2023-01-28T01:34:56;12.07;;;8.80;;
5795;SDS011;2924;51.458;7.046;2023-01-28T01:37:21;12.63;;;7.63;;
5795;SDS011;2924;51.458;7.046;2023-01-28T01:39:47;9.53;;;8.30;;
5795;SDS011;2924;51.458;7.046;2023-01-28T01:42:13;9.40;;;7.70;;
5795;SDS011;2924;51.458;7.046;2023-01-28T01:47:42;11.93;;;9.50;;
5795;SDS011;2924;51.458;7.046;2023-01-28T01:50:32;15.50;;;10.83;;
5795;SDS011;2924;51.458;7.046;2023-01-28T01:53:17;14.23;;;10.13;;
5795;SDS011;2924;51.458;7.046;2023-01-28T01:55:46;9.63;;;8.57;;
5795;SDS011;2924;51.458;7.046;2023-01-28T01:58:15;12.67;;;9.83;;
5795;SDS011;2924;51.458;7.046;2023-01-28T02:00:43;15.50;;;9.73;;
5795;SDS011;2924;51.458;7.046;2023-01-28T02:03:10;11.30;;;10.00;;
5795;SDS011;2924;51.458;7.046;2023-01-28T02:05:36;13.20;;;9.67;;
5795;SDS011;2924;51.458;7.046;2023-01-28T02:08:02;14.60;;;10.93;;
5795;SDS011;2924;51.458;7.046;2023-01-28T02:10:48;14.00;;;11.13;;
5795;SDS011;2924;51.458;7.046;2023-01-28T02:13:18;14.70;;;10.93;;
5795;SDS011;2924;51.458;7.046;2023-01-28T02:15:44;12.93;;;10.40;;
5795;SDS011;2924;51.458;7.046;2023-01-28T02:18:11;15.80;;;9.60;;
5795;SDS011;2924;51.458;7.046;2023-01-28T02:26:46;9.70;;;8.43;;
5795;SDS011;2924;51.458;7.046;2023-01-28T02:32:05;6.70;;;5.70;;
5795;SDS011;2924;51.458;7.046;2023-01-28T02:34:41;5.30;;;4.80;;
5795;SDS011;2924;51.458;7.046;2023-01-28T02:37:14;4.13;;;3.73;;
5795;SDS011;2924;51.458;7.046;2023-01-28T02:39:56;4.60;;;4.20;;
5795;SDS011;2924;51.458;7.046;2023-01-28T02:42:28;5.20;;;4.30;;
5795;SDS011;2924;51.458;7.046;2023-01-28T02:44:56;4.90;;;4.50;;
5795;SDS011;2924;51.458;7.046;2023-01-28T02:47:22;6.83;;;5.80;;
5795;SDS011;2924;51.458;7.046;2023-01-28T02:50:07;6.83;;;4.57;;
5795;SDS011;2924;51.458;7.046;2023-01-28T02:55:38;5.93;;;4.07;;
5795;SDS011;2924;51.458;7.046;2023-01-28T03:06:25;7.67;;;6.10;;
5795;SDS011;2924;51.458;7.046;2023-01-28T03:08:58;5.87;;;5.20;;
5795;SDS011;2924;51.458;7.046;2023-01-28T03:11:46;6.03;;;5.53;;
5795;SDS011;2924;51.458;7.046;2023-01-28T03:14:56;6.30;;;5.80;;
5795;SDS011;2924;51.458;7.046;2023-01-28T03:17:52;5.70;;;5.20;;
5795;SDS011;2924;51.458;7.046;2023-01-28T03:23:57;5.73;;;5.23;;
5795;SDS011;2924;51.458;7.046;2023-01-28T03:27:01;6.43;;;5.13;;
5795;SDS011;2924;51.458;7.046;2023-01-28T03:29:56;8.07;;;5.37;;
5795;SDS011;2924;51.458;7.046;2023-01-28T03:32:43;4.77;;;4.37;;
5795;SDS011;2924;51.458;7.046;2023-01-28T03:35:29;5.57;;;4.90;;
5795;SDS011;2924;51.458;7.046;2023-01-28T03:38:15;4.93;;;4.53;;
5795;SDS011;2924;51.458;7.046;2023-01-28T03:43:22;6.87;;;6.20;;
5795;SDS011;2924;51.458;7.046;2023-01-28T03:45:48;6.50;;;5.47;;
5795;SDS011;2924;51.458;7.046;2023-01-28T03:48:18;6.30;;;5.70;;
5795;SDS011;2924;51.458;7.046;2023-01-28T03:50:44;6.33;;;5.83;;
5795;SDS011;2924;51.458;7.046;2023-01-28T03:53:10;6.03;;;5.43;;
5795;SDS011;2924;51.458;7.046;2023-01-28T03:55:40;7.50;;;5.73;;
5795;SDS011;2924;51.458;7.046;2023-01-28T03:58:06;7.27;;;5.80;;
5795;SDS011;2924;51.458;7.046;2023-01-28T04:00:32;8.60;;;6.00;;
5795;SDS011;2924;51.458;7.046;2023-01-28T04:03:02;6.77;;;6.10;;
5795;SDS011;2924;51.458;7.046;2023-01-28T04:05:28;9.57;;;6.27;;
5795;SDS011;2924;51.458;7.046;2023-01-28T04:07:54;9.07;;;6.80;;
5795;SDS011;2924;51.458;7.046;2023-01-28T04:10:20;6.97;;;5.37;;
5795;SDS011;2924;51.458;7.046;2023-01-28T04:12:45;6.87;;;6.17;;
5795;SDS011;2924;51.458;7.046;2023-01-28T04:15:14;7.90;;;5.93;;
5795;SDS011;2924;51.458;7.046;2023-01-28T04:17:46;7.57;;;6.10;;
5795;SDS011;2924;51.458;7.046;2023-01-28T04:20:12;6.27;;;5.13;;
5795;SDS011;2924;51.458;7.046;2023-01-28T04:22:39;5.70;;;5.20;;
5795;SDS011;2924;51.458;7.046;2023-01-28T04:25:05;8.10;;;6.00;;
5795;SDS011;2924;51.458;7.046;2023-01-28T04:27:31;7.30;;;5.30;;
5795;SDS011;2924;51.458;7.046;2023-01-28T04:29:57;6.53;;;5.90;;
5795;SDS011;2924;51.458;7.046;2023-01-28T04:32:23;5.80;;;5.20;;
5795;SDS011;2924;51.458;7.046;2023-01-28T04:34:48;7.00;;;4.70;;
5795;SDS011;2924;51.458;7.046;2023-01-28T04:37:14;6.13;;;5.60;;
5795;SDS011;2924;51.458;7.046;2023-01-28T04:39:39;4.73;;;4.30;;
5795;SDS011;2924;51.458;7.046;2023-01-28T04:42:05;5.90;;;5.40;;
5795;SDS011;2924;51.458;7.046;2023-01-28T04:44:30;5.37;;;4.87;;
5795;SDS011;2924;51.458;7.046;2023-01-28T04:46:56;4.67;;;4.27;;
5795;SDS011;2924;51.458;7.046;2023-01-28T04:49:22;6.10;;;5.60;;
5795;SDS011;2924;51.458;7.046;2023-01-28T04:51:47;5.47;;;4.97;;
5795;SDS011;2924;51.458;7.046;2023-01-28T04:54:13;6.20;;;5.50;;
5795;SDS011;2924;51.458;7.046;2023-01-28T04:56:38;5.67;;;5.20;;
5795;SDS011;2924;51.458;7.046;2023-01-28T04:59:04;5.53;;;4.93;;
5795;SDS011;2924;51.458;7.046;2023-01-28T05:01:30;7.33;;;4.57;;
5795;SDS011;2924;51.458;7.046;2023-01-28T05:03:56;5.00;;;4.60;;
5795;SDS011;2924;51.458;7.046;2023-01-28T05:06:21;6.80;;;6.10;;
5795;SDS011;2924;51.458;7.046;2023-01-28T05:08:47;7.60;;;6.13;;
5795;SDS011;2924;51.458;7.046;2023-01-28T05:11:13;7.00;;;5.57;;
5795;SDS011;2924;51.458;7.046;2023-01-28T05:13:39;6.00;;;5.53;;
5795;SDS011;2924;51.458;7.046;2023-01-28T05:16:04;10.30;;;5.53;;
5795;SDS011;2924;51.458;7.046;2023-01-28T05:18:30;6.30;;;5.37;;
5795;SDS011;2924;51.458;7.046;2023-01-28T05:20:56;5.83;;;5.23;;
5795;SDS011;2924;51.458;7.046;2023-01-28T05:23:22;5.43;;;4.97;;
5795;SDS011;2924;51.458;7.046;2023-01-28T05:25:48;6.63;;;5.90;;
5795;SDS011;2924;51.458;7.046;2023-01-28T05:28:14;6.47;;;5.70;;
5795;SDS011;2924;51.458;7.046;2023-01-28T05:30:40;5.90;;;5.40;;
5795;SDS011;2924;51.458;7.046;2023-01-28T05:33:06;8.03;;;6.53;;
5795;SDS011;2924;51.458;7.046;2023-01-28T05:35:32;6.30;;;5.80;;
5795;SDS011;2924;51.458;7.046;2023-01-28T05:37:57;5.87;;;5.37;;
5795;SDS011;2924;51.458;7.046;2023-01-28T05:40:23;5.70;;;5.20;;
5795;SDS011;2924;51.458;7.046;2023-01-28T05:42:49;7.07;;;5.73;;
5795;SDS011;2924;51.458;7.046;2023-01-28T05:45:14;7.67;;;5.77;;
5795;SDS011;2924;51.458;7.046;2023-01-28T05:47:40;6.67;;;6.07;;
5795;SDS011;2924;51.458;7.046;2023-01-28T05:50:06;6.80;;;6.27;;
5795;SDS011;2924;51.458;7.046;2023-01-28T05:52:32;6.07;;;5.47;;
5795;SDS011;2924;51.458;7.046;2023-01-28T05:54:58;6.07;;;5.50;;
5795;SDS011;2924;51.458;7.046;2023-01-28T05:57:25;5.63;;;5.13;;
5795;SDS011;2924;51.458;7.046;2023-01-28T05:59:51;5.60;;;5.10;;
5795;SDS011;2924;51.458;7.046;2023-01-28T06:02:16;6.63;;;5.63;;
5795;SDS011;2924;51.458;7.046;2023-01-28T06:04:42;5.90;;;5.37;;
5795;SDS011;2924;51.458;7.046;2023-01-28T06:07:07;6.20;;;5.70;;
5795;SDS011;2924;51.458;7.046;2023-01-28T06:09:33;6.50;;;5.47;;
5795;SDS011;2924;51.458;7.046;2023-01-28T06:11:59;5.50;;;4.97;;
5795;SDS011;2924;51.458;7.046;2023-01-28T06:14:24;7.27;;;6.57;;
5795;SDS011;2924;51.458;7.046;2023-01-28T06:16:50;8.33;;;5.70;;
5795;SDS011;2924;51.458;7.046;2023-01-28T06:19:16;9.50;;;6.07;;
5795;SDS011;2924;51.458;7.046;2023-01-28T06:21:41;6.13;;;5.63;;
5795;SDS011;2924;51.458;7.046;2023-01-28T06:24:07;8.63;;;6.90;;
5795;SDS011;2924;51.458;7.046;2023-01-28T06:26:33;9.03;;;6.67;;
5795;SDS011;2924;51.458;7.046;2023-01-28T06:28:58;6.57;;;5.97;;
5795;SDS011;2924;51.458;7.046;2023-01-28T06:31:24;7.23;;;6.53;;
5795;SDS011;2924;51.458;7.046;2023-01-28T06:33:50;7.30;;;6.37;;
5795;SDS011;2924;51.458;7.046;2023-01-28T06:36:16;7.43;;;6.57;;
5795;SDS011;2924;51.458;7.046;2023-01-28T06:38:41;6.90;;;6.30;;
5795;SDS011;2924;51.458;7.046;2023-01-28T06:41:07;7.00;;;6.23;;
5795;SDS011;2924;51.458;7.046;2023-01-28T06:43:33;7.77;;;7.00;;
5795;SDS011;2924;51.458;7.046;2023-01-28T06:45:58;11.83;;;7.40;;
5795;SDS011;2924;51.458;7.046;2023-01-28T06:48:25;7.20;;;6.50;;
5795;SDS011;2924;51.458;7.046;2023-01-28T06:50:51;9.93;;;7.23;;
5795;SDS011;2924;51.458;7.046;2023-01-28T06:53:18;8.17;;;6.47;;
5795;SDS011;2924;51.458;7.046;2023-01-28T06:55:44;9.67;;;6.50;;
5795;SDS011;2924;51.458;7.046;2023-01-28T06:58:09;6.30;;;5.80;;
5795;SDS011;2924;51.458;7.046;2023-01-28T07:00:35;7.37;;;6.73;;
5795;SDS011;2924;51.458;7.046;2023-01-28T07:03:02;6.20;;;5.70;;
5795;SDS011;2924;51.458;7.046;2023-01-28T07:05:28;6.03;;;5.03;;
5795;SDS011;2924;51.458;7.046;2023-01-28T07:07:53;6.73;;;6.03;;
5795;SDS011;2924;51.458;7.046;2023-01-28T07:10:19;6.30;;;5.70;;
5795;SDS011;2924;51.458;7.046;2023-01-28T07:12:44;6.43;;;5.17;;
5795;SDS011;2924;51.458;7.046;2023-01-28T07:15:10;7.93;;;7.13;;
5795;SDS011;2924;51.458;7.046;2023-01-28T07:17:42;7.13;;;6.43;;
5795;SDS011;2924;51.458;7.046;2023-01-28T07:20:08;6.47;;;5.87;;
5795;SDS011;2924;51.458;7.046;2023-01-28T07:22:36;6.27;;;5.67;;
5795;SDS011;2924;51.458;7.046;2023-01-28T07:25:04;6.70;;;6.03;;
5795;SDS011;2924;51.458;7.046;2023-01-28T07:27:31;7.70;;;5.67;;
5795;SDS011;2924;51.458;7.046;2023-01-28T07:29:56;8.40;;;5.67;;
5795;SDS011;2924;51.458;7.046;2023-01-28T07:32:22;6.60;;;6.00;;
5795;SDS011;2924;51.458;7.046;2023-01-28T07:34:50;6.37;;;5.77;;
5795;SDS011;2924;51.458;7.046;2023-01-28T07:37:16;6.00;;;5.40;;
5795;SDS011;2924;51.458;7.046;2023-01-28T07:39:41;6.50;;;5.90;;
5795;SDS011;2924;51.458;7.046;2023-01-28T07:42:07;8.50;;;6.17;;
5795;SDS011;2924;51.458;7.046;2023-01-28T07:44:33;9.40;;;6.10;;
5795;SDS011;2924;51.458;7.046;2023-01-28T07:47:00;8.93;;;5.90;;
5795;SDS011;2924;51.458;7.046;2023-01-28T07:49:27;16.30;;;6.53;;
5795;SDS011;2924;51.458;7.046;2023-01-28T07:51:52;7.40;;;6.70;;
5795;SDS011;2924;51.458;7.046;2023-01-28T07:54:18;6.40;;;5.90;;
5795;SDS011;2924;51.458;7.046;2023-01-28T07:56:44;9.33;;;6.00;;
5795;SDS011;2924;51.458;7.046;2023-01-28T07:59:09;7.40;;;6.70;;
5795;SDS011;2924;51.458;7.046;2023-01-28T08:01:35;6.67;;;6.07;;
5795;SDS011;2924;51.458;7.046;2023-01-28T08:04:01;8.10;;;6.70;;
5795;SDS011;2924;51.458;7.046;2023-01-28T08:06:29;5.90;;;5.37;;
5795;SDS011;2924;51.458;7.046;2023-01-28T08:08:55;15.00;;;5.77;;
5795;SDS011;2924;51.458;7.046;2023-01-28T08:11:20;7.10;;;6.40;;
5795;SDS011;2924;51.458;7.046;2023-01-28T08:13:47;7.93;;;5.97;;
5795;SDS011;2924;51.458;7.046;2023-01-28T08:16:14;6.70;;;6.00;;
5795;SDS011;2924;51.458;7.046;2023-01-28T08:18:40;6.47;;;5.87;;
5795;SDS011;2924;51.458;7.046;2023-01-28T08:21:05;8.90;;;5.50;;
5795;SDS011;2924;51.458;7.046;2023-01-28T08:23:31;6.33;;;5.23;;
5795;SDS011;2924;51.458;7.046;2023-01-28T08:25:58;5.80;;;5.20;;
5795;SDS011;2924;51.458;7.046;2023-01-28T08:28:24;6.77;;;5.60;;
5795;SDS011;2924;51.458;7.046;2023-01-28T08:30:50;5.67;;;5.03;;
5795;SDS011;2924;51.458;7.046;2023-01-28T08:33:16;11.10;;;6.23;;
5795;SDS011;2924;51.458;7.046;2023-01-28T08:35:43;7.33;;;6.30;;
5795;SDS011;2924;51.458;7.046;2023-01-28T08:38:10;6.37;;;5.87;;
5795;SDS011;2924;51.458;7.046;2023-01-28T08:40:37;5.90;;;5.40;;
5795;SDS011;2924;51.458;7.046;2023-01-28T08:43:03;5.20;;;4.80;;
5795;SDS011;2924;51.458;7.046;2023-01-28T08:45:29;6.20;;;5.70;;
5795;SDS011;2924;51.458;7.046;2023-01-28T08:50:30;5.60;;;5.00;;
5795;SDS011;2924;51.458;7.046;2023-01-28T08:52:58;5.33;;;4.83;;
5795;SDS011;2924;51.458;7.046;2023-01-28T08:55:26;5.90;;;4.50;;
5795;SDS011;2924;51.458;7.046;2023-01-28T08:57:52;5.57;;;5.17;;
5795;SDS011;2924;51.458;7.046;2023-01-28T09:00:19;7.83;;;6.63;;
5795;SDS011;2924;51.458;7.046;2023-01-28T09:02:45;8.97;;;7.90;;
5795;SDS011;2924;51.458;7.046;2023-01-28T09:05:11;7.63;;;6.87;;
5795;SDS011;2924;51.458;7.046;2023-01-28T09:07:37;7.80;;;7.10;;
5795;SDS011;2924;51.458;7.046;2023-01-28T09:10:03;7.77;;;7.07;;
5795;SDS011;2924;51.458;7.046;2023-01-28T09:12:30;9.10;;;7.57;;
5795;SDS011;2924;51.458;7.046;2023-01-28T09:14:56;9.17;;;7.33;;
5795;SDS011;2924;51.458;7.046;2023-01-28T09:17:21;7.23;;;6.53;;
5795;SDS011;2924;51.458;7.046;2023-01-28T09:19:47;9.83;;;8.03;;
5795;SDS011;2924;51.458;7.046;2023-01-28T09:22:13;7.57;;;6.93;;
5795;SDS011;2924;51.458;7.046;2023-01-28T09:24:39;13.93;;;6.73;;
5795;SDS011;2924;51.458;7.046;2023-01-28T09:27:05;9.37;;;7.23;;
5795;SDS011;2924;51.458;7.046;2023-01-28T09:29:32;8.03;;;7.30;;
5795;SDS011;2924;51.458;7.046;2023-01-28T09:31:58;8.70;;;7.83;;
5795;SDS011;2924;51.458;7.046;2023-01-28T09:34:24;8.33;;;6.80;;
5795;SDS011;2924;51.458;7.046;2023-01-28T09:36:50;9.57;;;7.00;;
5795;SDS011;2924;51.458;7.046;2023-01-28T09:39:15;9.10;;;8.20;;
5795;SDS011;2924;51.458;7.046;2023-01-28T09:47:04;6.47;;;5.87;;
5795;SDS011;2924;51.458;7.046;2023-01-28T09:49:38;8.67;;;6.70;;
5795;SDS011;2924;51.458;7.046;2023-01-28T09:52:16;6.67;;;6.17;;
5795;SDS011;2924;51.458;7.046;2023-01-28T09:54:47;7.20;;;6.57;;
5795;SDS011;2924;51.458;7.046;2023-01-28T09:57:21;8.80;;;6.80;;
5795;SDS011;2924;51.458;7.046;2023-01-28T09:59:48;8.53;;;6.87;;
5795;SDS011;2924;51.458;7.046;2023-01-28T10:19:47;9.07;;;8.17;;
5795;SDS011;2924;51.458;7.046;2023-01-28T10:21:54;7.93;;;7.23;;
5795;SDS011;2924;51.458;7.046;2023-01-28T10:24:28;9.63;;;7.40;;
5795;SDS011;2924;51.458;7.046;2023-01-28T10:26:59;10.53;;;7.63;;
5795;SDS011;2924;51.458;7.046;2023-01-28T10:29:32;7.43;;;6.70;;
5795;SDS011;2924;51.458;7.046;2023-01-28T10:34:54;12.53;;;7.50;;
5795;SDS011;2924;51.458;7.046;2023-01-28T10:37:23;7.87;;;7.17;;
5795;SDS011;2924;51.458;7.046;2023-01-28T10:39:50;9.83;;;7.40;;
5795;SDS011;2924;51.458;7.046;2023-01-28T10:42:27;9.30;;;8.40;;
5795;SDS011;2924;51.458;7.046;2023-01-28T10:47:43;8.77;;;7.97;;
5795;SDS011;2924;51.458;7.046;2023-01-28T10:50:33;8.70;;;7.87;;
5795;SDS011;2924;51.458;7.046;2023-01-28T10:53:03;11.60;;;8.10;;
5795;SDS011;2924;51.458;7.046;2023-01-28T10:55:30;8.17;;;7.47;;
5795;SDS011;2924;51.458;7.046;2023-01-28T10:58:11;7.60;;;6.90;;
5795;SDS011;2924;51.458;7.046;2023-01-28T11:00:43;12.20;;;7.87;;
5795;SDS011;2924;51.458;7.046;2023-01-28T11:03:18;8.93;;;7.43;;
5795;SDS011;2924;51.458;7.046;2023-01-28T11:05:51;10.07;;;7.50;;
5795;SDS011;2924;51.458;7.046;2023-01-28T11:08:18;11.27;;;6.90;;
5795;SDS011;2924;51.458;7.046;2023-01-28T11:10:46;8.17;;;7.47;;
5795;SDS011;2924;51.458;7.046;2023-01-28T11:13:16;9.37;;;8.30;;
5795;SDS011;2924;51.458;7.046;2023-01-28T11:15:47;10.73;;;7.80;;
5795;SDS011;2924;51.458;7.046;2023-01-28T11:18:49;7.83;;;7.13;;
5795;SDS011;2924;51.458;7.046;2023-01-28T11:21:21;9.30;;;7.67;;
5795;SDS011;2924;51.458;7.046;2023-01-28T11:23:54;8.10;;;7.30;;
5795;SDS011;2924;51.458;7.046;2023-01-28T11:26:32;11.53;;;8.50;;
5795;SDS011;2924;51.458;7.046;2023-01-28T11:29:02;14.30;;;8.70;;
5795;SDS011;2924;51.458;7.046;2023-01-28T11:31:28;17.87;;;9.43;;
5795;SDS011;2924;51.458;7.046;2023-01-28T11:34:05;8.17;;;7.10;;
5795;SDS011;2924;51.458;7.046;2023-01-28T11:36:32;7.30;;;6.70;;
5795;SDS011;2924;51.458;7.046;2023-01-28T11:38:59;7.10;;;6.43;;
5795;SDS011;2924;51.458;7.046;2023-01-28T11:41:37;7.67;;;6.97;;
5795;SDS011;2924;51.458;7.046;2023-01-28T11:44:14;10.40;;;6.97;;
5795;SDS011;2924;51.458;7.046;2023-01-28T11:47:24;8.27;;;7.47;;
5795;SDS011;2924;51.458;7.046;2023-01-28T11:52:16;7.23;;;6.50;;
5795;SDS011;2924;51.458;7.046;2023-01-28T11:55:17;7.83;;;7.13;;
5795;SDS011;2924;51.458;7.046;2023-01-28T12:01:02;8.00;;;7.20;;
5795;SDS011;2924;51.458;7.046;2023-01-28T12:17:34;11.90;;;8.87;;
5795;SDS011;2924;51.458;7.046;2023-01-28T12:28:02;12.83;;;9.63;;
5795;SDS011;2924;51.458;7.046;2023-01-28T12:30:55;11.77;;;9.80;;
5795;SDS011;2924;51.458;7.046;2023-01-28T12:39:31;11.97;;;9.60;;
5795;SDS011;2924;51.458;7.046;2023-01-28T12:42:11;12.80;;;9.23;;
5795;SDS011;2924;51.458;7.046;2023-01-28T12:44:43;10.83;;;9.70;;
5795;SDS011;2924;51.458;7.046;2023-01-28T12:47:19;10.30;;;8.10;;
5795;SDS011;2924;51.458;7.046;2023-01-28T12:50:11;10.27;;;9.27;;
5795;SDS011;2924;51.458;7.046;2023-01-28T12:53:02;11.40;;;9.97;;
5795;SDS011;2924;51.458;7.046;2023-01-28T12:55:45;11.30;;;10.00;;
5795;SDS011;2924;51.458;7.046;2023-01-28T12:58:20;9.90;;;8.80;;
5795;SDS011;2924;51.458;7.046;2023-01-28T13:00:53;14.13;;;9.27;;
5795;SDS011;2924;51.458;7.046;2023-01-28T13:06:11;19.07;;;12.70;;
5795;SDS011;2924;51.458;7.046;2023-01-28T13:08:42;10.00;;;9.03;;
5795;SDS011;2924;51.458;7.046;2023-01-28T13:11:10;10.90;;;9.60;;
5795;SDS011;2924;51.458;7.046;2023-01-28T13:13:40;12.17;;;9.63;;
5795;SDS011;2924;51.458;7.046;2023-01-28T13:16:08;15.37;;;10.53;;
5795;SDS011;2924;51.458;7.046;2023-01-28T13:21:04;19.03;;;14.97;;
5795;SDS011;2924;51.458;7.046;2023-01-28T13:23:38;21.40;;;11.20;;
5795;SDS011;2924;51.458;7.046;2023-01-28T13:28:44;14.40;;;10.90;;
5795;SDS011;2924;51.458;7.046;2023-01-28T13:31:11;20.50;;;16.00;;
5795;SDS011;2924;51.458;7.046;2023-01-28T13:36:36;20.20;;;14.60;;
5795;SDS011;2924;51.458;7.046;2023-01-28T13:41:48;11.63;;;9.03;;
5795;SDS011;2924;51.458;7.046;2023-01-28T13:46:50;8.17;;;7.47;;
5795;SDS011;2924;51.458;7.046;2023-01-28T13:49:20;9.40;;;8.47;;
5795;SDS011;2924;51.458;7.046;2023-01-28T13:52:03;11.40;;;9.60;;
5795;SDS011;2924;51.458;7.046;2023-01-28T13:54:39;10.80;;;8.67;;
5795;SDS011;2924;51.458;7.046;2023-01-28T14:19:25;11.80;;;10.27;;
5795;SDS011;2924;51.458;7.046;2023-01-28T14:21:55;11.03;;;9.13;;
5795;SDS011;2924;51.458;7.046;2023-01-28T14:24:21;14.60;;;10.87;;
5795;SDS011;2924;51.458;7.046;2023-01-28T14:35:27;11.60;;;10.07;;
5795;SDS011;2924;51.458;7.046;2023-01-28T14:37:55;10.27;;;9.20;;
5795;SDS011;2924;51.458;7.046;2023-01-28T14:40:22;10.20;;;9.13;;
5795;SDS011;2924;51.458;7.046;2023-01-28T14:42:49;10.07;;;9.07;;
5795;SDS011;2924;51.458;7.046;2023-01-28T14:54:00;12.60;;;9.80;;
5795;SDS011;2924;51.458;7.046;2023-01-28T14:59:15;12.40;;;8.97;;
5795;SDS011;2924;51.458;7.046;2023-01-28T15:01:44;10.40;;;8.37;;
5795;SDS011;2924;51.458;7.046;2023-01-28T15:04:25;11.10;;;9.07;;
5795;SDS011;2924;51.458;7.046;2023-01-28T15:06:53;9.10;;;8.00;;
5795;SDS011;2924;51.458;7.046;2023-01-28T15:09:19;10.00;;;9.00;;
5795;SDS011;2924;51.458;7.046;2023-01-28T15:11:46;11.63;;;8.70;;
5795;SDS011;2924;51.458;7.046;2023-01-28T15:14:35;10.23;;;9.10;;
5795;SDS011;2924;51.458;7.046;2023-01-28T15:17:00;10.73;;;9.10;;
5795;SDS011;2924;51.458;7.046;2023-01-28T15:19:30;9.80;;;8.70;;
5795;SDS011;2924;51.458;7.046;2023-01-28T15:22:00;9.70;;;8.70;;
5795;SDS011;2924;51.458;7.046;2023-01-28T15:24:31;12.57;;;10.37;;
5795;SDS011;2924;51.458;7.046;2023-01-28T15:26:59;11.60;;;10.00;;
5795;SDS011;2924;51.458;7.046;2023-01-28T15:29:29;11.07;;;9.87;;
5795;SDS011;2924;51.458;7.046;2023-01-28T15:32:00;10.30;;;9.17;;
5795;SDS011;2924;51.458;7.046;2023-01-28T15:34:27;10.60;;;9.50;;
5795;SDS011;2924;51.458;7.046;2023-01-28T15:36:57;13.33;;;11.07;;
5795;SDS011;2924;51.458;7.046;2023-01-28T15:39:25;10.50;;;9.00;;
5795;SDS011;2924;51.458;7.046;2023-01-28T15:41:55;14.07;;;10.17;;
5795;SDS011;2924;51.458;7.046;2023-01-28T15:44:36;18.20;;;12.90;;
5795;SDS011;2924;51.458;7.046;2023-01-28T15:49:45;23.90;;;16.90;;
5795;SDS011;2924;51.458;7.046;2023-01-28T15:52:13;17.20;;;12.27;;
5795;SDS011;2924;51.458;7.046;2023-01-28T15:54:39;16.10;;;12.90;;
5795;SDS011;2924;51.458;7.046;2023-01-28T15:57:18;17.43;;;13.23;;
5795;SDS011;2924;51.458;7.046;2023-01-28T15:59:45;20.50;;;14.23;;
5795;SDS011;2924;51.458;7.046;2023-01-28T16:02:22;16.30;;;12.50;;
5795;SDS011;2924;51.458;7.046;2023-01-28T16:04:55;17.10;;;12.47;;
5795;SDS011;2924;51.458;7.046;2023-01-28T16:07:26;18.60;;;13.30;;
5795;SDS011;2924;51.458;7.046;2023-01-28T16:09:54;17.53;;;13.40;;
5795;SDS011;2924;51.458;7.046;2023-01-28T16:12:22;29.07;;;13.70;;
5795;SDS011;2924;51.458;7.046;2023-01-28T16:14:49;22.57;;;15.37;;
5795;SDS011;2924;51.458;7.046;2023-01-28T16:17:22;19.40;;;14.17;;
5795;SDS011;2924;51.458;7.046;2023-01-28T16:19:56;17.27;;;13.57;;
5795;SDS011;2924;51.458;7.046;2023-01-28T16:22:32;16.20;;;12.37;;
5795;SDS011;2924;51.458;7.046;2023-01-28T16:25:03;18.27;;;12.73;;
5795;SDS011;2924;51.458;7.046;2023-01-28T16:28:08;20.70;;;12.90;;
5795;SDS011;2924;51.458;7.046;2023-01-28T16:30:40;20.07;;;13.90;;
5795;SDS011;2924;51.458;7.046;2023-01-28T16:33:15;22.73;;;14.30;;
5795;SDS011;2924;51.458;7.046;2023-01-28T16:35:46;21.90;;;14.33;;
5795;SDS011;2924;51.458;7.046;2023-01-28T16:38:12;19.80;;;13.33;;
5795;SDS011;2924;51.458;7.046;2023-01-28T16:40:41;22.50;;;14.60;;
5795;SDS011;2924;51.458;7.046;2023-01-28T16:43:08;22.83;;;15.63;;
5795;SDS011;2924;51.458;7.046;2023-01-28T16:45:38;25.23;;;15.23;;
5795;SDS011;2924;51.458;7.046;2023-01-28T16:48:05;24.80;;;16.00;;
5795;SDS011;2924;51.458;7.046;2023-01-28T16:50:31;22.60;;;14.53;;
5795;SDS011;2924;51.458;7.046;2023-01-28T16:52:57;24.23;;;16.27;;
5795;SDS011;2924;51.458;7.046;2023-01-28T16:55:24;26.03;;;16.93;;
5795;SDS011;2924;51.458;7.046;2023-01-28T16:57:53;31.33;;;17.07;;
5795;SDS011;2924;51.458;7.046;2023-01-28T17:00:22;29.20;;;17.27;;
5795;SDS011;2924;51.458;7.046;2023-01-28T17:02:49;31.37;;;18.67;;
5795;SDS011;2924;51.458;7.046;2023-01-28T17:05:16;31.53;;;18.40;;
5795;SDS011;2924;51.458;7.046;2023-01-28T17:07:42;31.90;;;17.43;;
5795;SDS011;2924;51.458;7.046;2023-01-28T17:10:08;24.10;;;16.53;;
5795;SDS011;2924;51.458;7.046;2023-01-28T17:12:34;36.00;;;15.73;;
5795;SDS011;2924;51.458;7.046;2023-01-28T17:14:59;28.53;;;18.30;;
5795;SDS011;2924;51.458;7.046;2023-01-28T17:17:27;31.17;;;17.90;;
5795;SDS011;2924;51.458;7.046;2023-01-28T17:19:53;33.30;;;20.40;;
5795;SDS011;2924;51.458;7.046;2023-01-28T17:22:18;29.03;;;18.13;;
5795;SDS011;2924;51.458;7.046;2023-01-28T17:24:44;32.53;;;19.10;;
5795;SDS011;2924;51.458;7.046;2023-01-28T17:27:10;27.77;;;17.50;;
5795;SDS011;2924;51.458;7.046;2023-01-28T17:29:36;27.63;;;18.93;;
5795;SDS011;2924;51.458;7.046;2023-01-28T17:32:01;32.33;;;19.33;;
5795;SDS011;2924;51.458;7.046;2023-01-28T17:34:27;31.07;;;19.70;;
5795;SDS011;2924;51.458;7.046;2023-01-28T17:36:53;31.17;;;18.30;;
5795;SDS011;2924;51.458;7.046;2023-01-28T17:39:19;27.30;;;16.73;;
5795;SDS011;2924;51.458;7.046;2023-01-28T17:41:44;29.47;;;18.60;;
5795;SDS011;2924;51.458;7.046;2023-01-28T17:44:11;38.10;;;21.33;;
5795;SDS011;2924;51.458;7.046;2023-01-28T17:46:40;32.13;;;18.17;;
5795;SDS011;2924;51.458;7.046;2023-01-28T17:49:06;31.70;;;18.33;;
5795;SDS011;2924;51.458;7.046;2023-01-28T17:51:32;33.70;;;19.00;;
5795;SDS011;2924;51.458;7.046;2023-01-28T17:53:57;33.50;;;20.37;;
5795;SDS011;2924;51.458;7.046;2023-01-28T17:56:24;36.40;;;22.10;;